Time;durP1;ratioP1;P1;durP2;ratioP2;P2;SDS_P1;SDS_P2;PMS_P1;PMS_P2;Temp;Humidity;BMP_temperature;BMP_pressure;BME280_temperature;BME280_humidity;BME280_pressure;Samples;Min_cycle;Max_cycle;Signal;HPM_P1;HPM_P2
2023/05/30 00:00:43;;;;;;;0.52;0.47;;;;;;;23.77;36.12;101322.75;7398948;19;20077;-95
2023/05/30 00:03:09;;;;;;;1.80;0.65;;;;;;;23.82;35.75;101326.84;7397098;19;20026;-94
2023/05/30 00:05:36;;;;;;;3.35;0.75;;;;;;;23.72;36.20;101326.41;7401825;19;20069;-94
2023/05/30 00:08:03;;;;;;;3.28;1.50;;;;;;;23.62;35.90;101330.91;7397443;19;20007;-95
2023/05/30 00:10:29;;;;;;;1.40;0.63;;;;;;;23.61;35.94;101332.19;7397397;19;20018;-95
2023/05/30 00:12:55;;;;;;;2.15;0.35;;;;;;;23.56;36.10;101327.34;7399961;19;20018;-94
2023/05/30 00:15:22;;;;;;;1.00;0.95;;;;;;;23.51;36.12;101328.16;7398762;19;20018;-94
2023/05/30 00:17:52;;;;;;;7.10;1.00;;;;;;;23.43;35.70;101332.09;7398871;19;20102;-95
2023/05/30 00:20:22;;;;;;;6.43;0.70;;;;;;;23.16;36.52;101326.06;7398847;19;20018;-94
2023/05/30 00:22:49;;;;;;;0.43;0.43;;;;;;;23.02;36.59;101326.44;7396173;19;20027;-94
2023/05/30 00:25:16;;;;;;;0.55;0.55;;;;;;;22.99;36.34;101330.31;7398254;19;20089;-94
2023/05/30 00:27:42;;;;;;;5.68;0.63;;;;;;;22.99;36.49;101316.13;7397075;19;20038;-95
2023/05/30 00:30:08;;;;;;;0.70;0.70;;;;;;;22.91;37.00;101320.84;7397586;19;20017;-94
2023/05/30 00:32:35;;;;;;;0.70;0.45;;;;;;;22.91;37.01;101323.66;7395111;19;20022;-95
2023/05/30 00:35:01;;;;;;;1.35;1.25;;;;;;;22.89;37.06;101317.75;7394144;19;20023;-93
2023/05/30 00:37:27;;;;;;;0.43;0.43;;;;;;;22.86;36.61;101324.47;7397685;19;20037;-92
2023/05/30 00:39:53;;;;;;;4.85;1.30;;;;;;;22.85;36.65;101314.41;7401872;19;20017;-93
2023/05/30 00:42:20;;;;;;;0.40;0.40;;;;;;;22.83;36.58;101317.00;7399876;19;20022;-94
2023/05/30 00:44:47;;;;;;;4.03;1.60;;;;;;;22.73;36.79;101321.44;7403535;19;20019;-93
2023/05/30 00:47:14;;;;;;;2.40;0.28;;;;;;;22.69;37.15;101323.78;7401514;19;20346;-94
2023/05/30 00:49:40;;;;;;;0.88;0.88;;;;;;;22.83;36.62;101308.47;7410653;19;20018;-93
2023/05/30 00:52:08;;;;;;;0.63;0.43;;;;;;;22.88;36.73;101321.88;7412915;19;20014;-93
2023/05/30 00:54:34;;;;;;;5.07;1.25;;;;;;;22.89;36.65;101320.59;7417342;19;20015;-93
2023/05/30 00:57:01;;;;;;;1.13;0.45;;;;;;;22.83;36.82;101323.44;7424719;19;20007;-91
2023/05/30 00:59:27;;;;;;;13.05;0.88;;;;;;;22.82;36.99;101330.44;7432901;19;20009;-92
2023/05/30 01:01:54;;;;;;;1.85;0.60;;;;;;;22.85;36.99;101314.41;7421765;19;20015;-90
2023/05/30 01:04:22;;;;;;;0.55;0.52;;;;;;;22.85;36.99;101323.69;7399481;19;20018;-94
2023/05/30 01:06:48;;;;;;;1.45;0.82;;;;;;;22.91;36.69;101320.84;7398497;19;20026;-95
2023/05/30 01:09:18;;;;;;;2.33;0.77;;;;;;;22.90;37.06;101319.28;7399096;19;20014;-95
2023/05/30 01:12:09;;;;;;;1.85;0.93;;;;;;;22.75;37.37;101321.69;7397228;19;20480;-93
2023/05/30 01:14:55;;;;;;;1.05;1.05;;;;;;;22.76;36.96;101323.25;7398015;19;20030;-95
2023/05/30 01:17:31;;;;;;;0.50;0.50;;;;;;;22.73;37.14;101327.13;7396829;19;20014;-95
2023/05/30 01:20:09;;;;;;;0.77;0.77;;;;;;;22.52;37.49;101326.69;7397408;19;20050;-92
2023/05/30 01:22:50;;;;;;;0.47;0.43;;;;;;;22.44;37.65;101322.84;7395443;19;20033;-90
2023/05/30 01:25:54;;;;;;;1.00;0.80;;;;;;;22.56;37.46;101336.50;7399302;19;20031;-92
2023/05/30 01:28:22;;;;;;;20.33;2.03;;;;;;;22.52;37.28;101341.66;7397022;19;20033;-93
2023/05/30 01:30:52;;;;;;;0.50;0.50;;;;;;;22.53;37.35;101339.59;7396492;19;20025;-93
2023/05/30 01:33:19;;;;;;;0.93;0.93;;;;;;;22.55;37.21;101340.63;7397783;19;20050;-92
2023/05/30 01:35:47;;;;;;;0.25;0.25;;;;;;;22.57;37.51;101340.84;7400484;19;20014;-93
2023/05/30 01:38:14;;;;;;;0.70;0.70;;;;;;;22.61;37.48;101332.09;7399880;19;20018;-94
2023/05/30 01:40:44;;;;;;;1.08;0.65;;;;;;;22.45;37.39;101339.38;7408030;19;20408;-94
2023/05/30 01:43:38;;;;;;;0.60;0.60;;;;;;;22.69;37.21;101338.78;7424735;19;20029;-93
2023/05/30 01:46:04;;;;;;;2.97;1.17;;;;;;;22.71;37.10;101341.09;7429095;19;20044;-93
2023/05/30 01:48:48;;;;;;;0.63;0.63;;;;;;;22.59;37.24;101346.03;7425681;19;20010;-93
2023/05/30 01:51:24;;;;;;;1.75;0.73;;;;;;;22.52;37.33;101352.25;7425938;19;20026;-93
2023/05/30 01:53:58;;;;;;;0.30;0.30;;;;;;;22.43;37.32;101346.88;7425341;19;19998;-94
2023/05/30 01:56:26;;;;;;;3.08;1.08;;;;;;;22.42;37.33;101353.81;7430326;19;20020;-94
2023/05/30 01:58:52;;;;;;;1.33;1.05;;;;;;;22.45;37.02;101350.72;7429581;19;20020;-93
2023/05/30 02:01:21;;;;;;;1.08;0.55;;;;;;;22.40;37.38;101353.56;7425600;19;20002;-93
2023/05/30 02:03:47;;;;;;;0.40;0.40;;;;;;;22.56;37.04;101347.84;7419661;19;20050;-94
2023/05/30 02:06:13;;;;;;;3.28;0.77;;;;;;;22.53;36.99;101359.47;7424137;19;20072;-93
2023/05/30 02:08:40;;;;;;;0.63;0.63;;;;;;;22.52;37.13;101361.53;7425530;19;20050;-94
2023/05/30 02:11:06;;;;;;;1.67;1.13;;;;;;;22.51;37.16;101351.47;7426459;19;20007;-93
2023/05/30 02:13:32;;;;;;;12.77;0.60;;;;;;;22.49;37.03;101351.22;7429407;19;20006;-93
2023/05/30 02:15:59;;;;;;;1.92;0.93;;;;;;;22.49;36.97;101353.28;7429102;19;20025;-93
2023/05/30 02:18:27;;;;;;;0.55;0.45;;;;;;;22.47;37.03;101356.66;7426753;19;20011;-92
2023/05/30 02:20:56;;;;;;;0.75;0.60;;;;;;;22.44;36.99;101360.53;7426338;19;20319;-93
2023/05/30 02:23:23;;;;;;;5.07;0.55;;;;;;;22.31;36.77;101348.97;7415552;19;20017;-93
2023/05/30 02:25:50;;;;;;;7.57;1.30;;;;;;;22.28;37.07;101349.25;7430828;19;20007;-92
2023/05/30 02:28:16;;;;;;;0.70;0.70;;;;;;;22.31;36.92;101363.16;7429634;19;20017;-93
2023/05/30 02:30:43;;;;;;;1.55;0.50;;;;;;;22.37;37.22;101358.22;7427547;19;20005;-93
2023/05/30 02:33:09;;;;;;;1.25;1.20;;;;;;;22.30;37.07;101363.69;7426926;19;20006;-93
2023/05/30 02:35:35;;;;;;;0.50;0.50;;;;;;;22.30;37.04;101358.78;7430188;19;20006;-93
2023/05/30 02:38:01;;;;;;;1.52;1.05;;;;;;;22.22;37.16;101363.44;7428288;19;20025;-92
2023/05/30 02:40:27;;;;;;;0.73;0.70;;;;;;;22.28;37.13;101367.06;7427629;19;20023;-90
2023/05/30 02:42:53;;;;;;;3.65;0.70;;;;;;;22.33;37.03;101374.75;7427442;19;20014;-93
2023/05/30 02:45:20;;;;;;;2.28;0.47;;;;;;;22.32;37.45;101361.88;7428213;19;20038;-94
2023/05/30 02:47:46;;;;;;;0.80;0.55;;;;;;;22.36;37.52;101376.56;7410083;19;20345;-94
2023/05/30 02:50:12;;;;;;;0.52;0.52;;;;;;;22.34;37.46;101370.66;7400068;19;20014;-93
2023/05/30 02:52:38;;;;;;;0.47;0.47;;;;;;;22.45;37.70;101384.81;7397871;19;20026;-93
2023/05/30 02:55:05;;;;;;;0.65;0.60;;;;;;;22.47;37.97;101389.94;7400370;19;20023;-93
2023/05/30 02:57:49;;;;;;;0.38;0.38;;;;;;;22.48;38.34;101392.25;7400035;19;20401;-93
2023/05/30 03:00:23;;;;;;;4.72;0.80;;;;;;;22.78;37.84;101391.66;7406087;19;20014;-93
2023/05/30 03:03:08;;;;;;;0.43;0.43;;;;;;;22.89;38.09;101385.94;7404732;19;20010;-93
2023/05/30 03:05:35;;;;;;;1.00;0.77;;;;;;;22.97;38.16;101387.69;7409606;19;20096;-92
2023/05/30 03:08:03;;;;;;;4.13;1.00;;;;;;;23.09;38.35;101382.69;7405132;19;20015;-93
2023/05/30 03:10:29;;;;;;;0.90;0.40;;;;;;;23.07;38.37;101385.28;7404077;19;20465;-93
2023/05/30 03:12:55;;;;;;;1.85;0.63;;;;;;;23.18;38.65;101391.69;7402438;19;20010;-92
2023/05/30 03:15:22;;;;;;;0.25;0.25;;;;;;;23.23;38.98;101387.28;7404637;19;20010;-93
2023/05/30 03:17:48;;;;;;;1.20;0.50;;;;;;;23.40;38.77;101390.03;7404315;19;20007;-92
2023/05/30 03:20:15;;;;;;;0.68;0.68;;;;;;;23.60;38.62;101381.09;7404800;19;20011;-92
2023/05/30 03:22:42;;;;;;;0.40;0.40;;;;;;;23.66;39.14;101381.81;7405122;19;20017;-93
2023/05/30 03:25:08;;;;;;;3.08;0.63;;;;;;;23.89;38.54;101383.91;7405660;19;20015;-92
2023/05/30 03:27:36;;;;;;;4.90;2.25;;;;;;;23.98;38.91;101375.03;7404495;19;20023;-93
2023/05/30 03:30:04;;;;;;;24.50;1.73;;;;;;;24.12;38.68;101386.56;7401427;19;20019;-93
2023/05/30 03:32:32;;;;;;;2.00;1.05;;;;;;;24.28;38.55;101377.09;7398924;19;20034;-93
2023/05/30 03:34:58;;;;;;;2.80;1.83;;;;;;;24.41;38.61;101374.31;7400298;19;20034;-93
2023/05/30 03:37:27;;;;;;;9.23;1.27;;;;;;;24.51;38.70;101378.38;7400390;19;20014;-92
2023/05/30 03:39:53;;;;;;;0.85;0.65;;;;;;;24.61;38.70;101379.53;7398301;19;20015;-95
2023/05/30 03:42:21;;;;;;;3.25;1.35;;;;;;;24.56;38.89;101384.00;7399232;19;20357;-93
2023/05/30 03:44:47;;;;;;;2.67;1.02;;;;;;;24.54;38.79;101395.16;7398689;19;20026;-93
2023/05/30 03:47:13;;;;;;;2.70;0.98;;;;;;;24.62;38.56;101390.38;7400703;19;20022;-92
2023/05/30 03:49:39;;;;;;;4.13;1.45;;;;;;;24.72;38.77;101382.25;7400597;19;20052;-93
2023/05/30 03:52:06;;;;;;;1.27;1.17;;;;;;;24.79;38.58;101387.38;7397710;19;20109;-93
2023/05/30 03:54:32;;;;;;;2.72;0.80;;;;;;;24.86;38.69;101398.16;7398922;19;20070;-93
2023/05/30 03:57:00;;;;;;;4.25;1.10;;;;;;;24.90;38.41;101398.63;7396145;19;20014;-92
2023/05/30 03:59:26;;;;;;;2.95;0.77;;;;;;;25.02;38.51;101408.56;7402659;19;20022;-92
2023/05/30 04:01:52;;;;;;;1.70;0.98;;;;;;;25.01;38.43;101398.47;7396926;19;20019;-93
2023/05/30 04:04:18;;;;;;;1.40;0.95;;;;;;;25.00;38.49;101405.47;7398230;19;20019;-93
2023/05/30 04:06:45;;;;;;;10.90;0.98;;;;;;;24.96;38.31;101419.25;7398436;19;20010;-92
2023/05/30 04:09:11;;;;;;;3.22;1.30;;;;;;;24.92;38.25;101396.00;7397022;19;20019;-94
2023/05/30 04:11:37;;;;;;;4.78;1.58;;;;;;;24.99;38.09;101403.94;7396910;19;20015;-92
2023/05/30 04:14:03;;;;;;;4.18;1.42;;;;;;;25.06;37.92;101411.13;7400863;19;20011;-92
2023/05/30 04:16:30;;;;;;;6.80;1.42;;;;;;;25.14;37.80;101412.81;7393713;19;20007;-89
2023/05/30 04:18:56;;;;;;;5.60;2.25;;;;;;;25.00;38.04;101408.31;7396023;19;20023;-89
2023/05/30 04:21:22;;;;;;;5.68;1.55;;;;;;;24.99;38.06;101403.94;7395931;19;20107;-91
2023/05/30 04:23:49;;;;;;;5.05;1.75;;;;;;;25.01;37.98;101409.88;7394165;19;20011;-95
2023/05/30 04:26:15;;;;;;;17.85;2.40;;;;;;;25.16;37.87;101406.56;7400535;19;20017;-95
2023/05/30 04:28:42;;;;;;;6.50;0.95;;;;;;;25.23;37.56;101409.53;7399509;19;20389;-94
2023/05/30 04:31:08;;;;;;;3.13;0.88;;;;;;;25.31;37.75;101415.41;7396536;19;20031;-93
2023/05/30 04:33:35;;;;;;;6.53;2.28;;;;;;;25.30;37.75;101403.22;7394143;19;20010;-94
2023/05/30 04:36:04;;;;;;;7.15;1.98;;;;;;;25.27;37.54;101412.88;7394905;19;20015;-93
2023/05/30 04:38:37;;;;;;;10.13;2.03;;;;;;;25.29;37.45;101410.25;7397389;19;20090;-95
2023/05/30 04:41:04;;;;;;;7.10;1.48;;;;;;;25.28;37.33;101411.56;7396909;19;20018;-94
2023/05/30 04:43:31;;;;;;;8.13;2.95;;;;;;;25.34;37.13;101411.44;7394463;19;20031;-94
2023/05/30 04:46:00;;;;;;;4.55;1.30;;;;;;;25.35;37.22;101405.22;7398985;19;20464;-95
2023/05/30 04:48:27;;;;;;;7.53;2.47;;;;;;;25.39;37.10;101414.22;7395868;19;20038;-93
2023/05/30 04:50:53;;;;;;;1.75;1.15;;;;;;;25.44;37.11;101418.34;7395867;19;20026;-94
2023/05/30 04:53:20;;;;;;;3.28;1.80;;;;;;;25.48;37.08;101416.72;7393333;19;20019;-93
2023/05/30 04:55:46;;;;;;;7.72;2.10;;;;;;;25.62;37.24;101406.09;7395763;19;20022;-94
2023/05/30 04:58:15;;;;;;;3.65;1.13;;;;;;;25.75;36.95;101413.97;7397560;19;20648;-94
2023/05/30 05:00:41;;;;;;;1.00;0.95;;;;;;;25.82;37.00;101413.31;7395993;19;20014;-94
2023/05/30 05:03:08;;;;;;;0.77;0.73;;;;;;;25.80;36.78;101419.56;7393964;19;20022;-94
2023/05/30 05:05:34;;;;;;;3.15;1.42;;;;;;;25.79;36.83;101415.19;7398433;19;20019;-94
2023/05/30 05:08:00;;;;;;;3.55;1.90;;;;;;;25.77;36.88;101422.75;7397168;19;20021;-93
2023/05/30 05:10:27;;;;;;;3.85;1.08;;;;;;;25.84;36.62;101413.53;7396740;19;20524;-93
2023/05/30 05:12:53;;;;;;;1.75;1.13;;;;;;;25.83;36.77;101403.44;7397018;19;20022;-94
2023/05/30 05:15:19;;;;;;;3.10;0.82;;;;;;;25.63;36.89;101421.16;7400343;19;20018;-95
2023/05/30 05:17:45;;;;;;;1.42;1.23;;;;;;;25.52;36.79;101425.75;7398151;19;20025;-94
2023/05/30 05:20:12;;;;;;;1.65;1.27;;;;;;;25.60;36.73;101420.16;7399995;19;20034;-94
2023/05/30 05:22:38;;;;;;;5.20;1.80;;;;;;;25.79;36.86;101417.28;7402903;19;20011;-94
2023/05/30 05:25:04;;;;;;;1.17;1.08;;;;;;;25.92;36.46;101415.22;7404872;19;20018;-93
2023/05/30 05:27:30;;;;;;;1.88;0.73;;;;;;;25.92;36.50;101418.09;7408939;19;20009;-91
2023/05/30 05:29:57;;;;;;;0.73;0.73;;;;;;;26.08;36.38;101419.06;7426550;19;20014;-93
2023/05/30 05:32:23;;;;;;;1.02;0.77;;;;;;;26.20;36.39;101426.16;7426236;19;20018;-93
2023/05/30 05:34:49;;;;;;;2.42;0.95;;;;;;;26.23;35.95;101434.41;7399499;19;20342;-94
2023/05/30 05:37:15;;;;;;;0.70;0.68;;;;;;;26.23;36.29;101430.78;7393922;19;20014;-92
2023/05/30 05:39:41;;;;;;;14.20;1.23;;;;;;;26.25;36.13;101439.56;7393892;19;20007;-93
2023/05/30 05:42:07;;;;;;;0.40;0.40;;;;;;;26.29;35.96;101440.03;7394758;19;20019;-94
2023/05/30 05:44:34;;;;;;;1.00;0.80;;;;;;;26.35;36.31;101437.84;7394981;19;20047;-93
2023/05/30 05:47:00;;;;;;;0.65;0.65;;;;;;;26.44;36.08;101437.41;7395237;19;20018;-94
2023/05/30 05:49:26;;;;;;;0.65;0.52;;;;;;;26.42;36.39;101440.03;7394396;19;20090;-94
2023/05/30 05:51:53;;;;;;;3.60;1.27;;;;;;;26.49;36.10;101442.22;7395027;19;20413;-94
2023/05/30 05:54:19;;;;;;;9.32;1.05;;;;;;;26.60;35.80;101436.28;7395188;19;20383;-93
2023/05/30 05:56:46;;;;;;;1.15;0.47;;;;;;;26.65;35.86;101438.28;7392024;19;20093;-94
2023/05/30 05:59:12;;;;;;;1.60;0.75;;;;;;;26.66;35.94;101439.81;7398739;19;20022;-94
2023/05/30 06:01:39;;;;;;;4.88;0.50;;;;;;;26.71;35.54;101436.06;7394269;19;20010;-94
2023/05/30 06:04:10;;;;;;;0.50;0.50;;;;;;;26.79;35.70;101436.22;7394978;19;20179;-93
2023/05/30 06:06:37;;;;;;;1.05;0.80;;;;;;;26.78;35.69;101446.09;7392837;19;20014;-93
2023/05/30 06:09:03;;;;;;;3.88;0.73;;;;;;;26.83;35.86;101437.41;7393019;19;20476;-93
2023/05/30 06:11:30;;;;;;;5.25;0.50;;;;;;;26.79;35.49;101431.25;7393778;19;20003;-92
2023/05/30 06:13:56;;;;;;;1.40;0.65;;;;;;;26.81;35.07;101440.03;7399046;19;20022;-92
2023/05/30 06:16:22;;;;;;;3.53;0.82;;;;;;;26.84;35.62;101436.09;7397345;19;20062;-93
2023/05/30 06:18:48;;;;;;;0.80;0.63;;;;;;;26.91;35.45;101446.09;7394331;19;20018;-92
2023/05/30 06:21:14;;;;;;;0.93;0.85;;;;;;;26.97;35.40;101449.59;7394446;19;20018;-94
2023/05/30 06:23:40;;;;;;;0.77;0.77;;;;;;;27.02;35.32;101446.63;7392553;19;20026;-92
2023/05/30 06:26:07;;;;;;;0.65;0.65;;;;;;;27.08;35.42;101451.44;7397789;19;20443;-94
2023/05/30 06:28:33;;;;;;;1.73;0.47;;;;;;;27.00;35.31;101452.13;7396756;19;20014;-94
2023/05/30 06:30:59;;;;;;;1.98;0.60;;;;;;;27.09;35.03;101447.28;7392821;19;20368;-93
2023/05/30 06:33:25;;;;;;;0.30;0.30;;;;;;;27.05;34.99;101456.94;7394395;19;20019;-93
2023/05/30 06:35:51;;;;;;;3.05;0.63;;;;;;;27.11;35.02;101461.78;7404019;19;20007;-92
2023/05/30 06:38:19;;;;;;;0.20;0.20;;;;;;;27.15;35.33;101460.13;7400491;19;20038;-93
2023/05/30 06:40:46;;;;;;;0.75;0.28;;;;;;;27.28;35.53;101457.25;7403525;19;20089;-92
2023/05/30 06:43:12;;;;;;;1.08;0.63;;;;;;;27.31;35.37;101461.84;7401902;19;20011;-92
2023/05/30 06:45:40;;;;;;;0.90;0.73;;;;;;;27.23;34.92;101468.78;7404395;19;20047;-93
2023/05/30 06:48:06;;;;;;;5.18;0.50;;;;;;;27.24;35.14;101470.34;7402016;19;20073;-92
2023/05/30 06:50:32;;;;;;;5.80;1.13;;;;;;;27.31;34.95;101458.22;7405390;19;20014;-93
2023/05/30 06:52:58;;;;;;;0.85;0.52;;;;;;;27.28;34.82;101465.03;7403181;19;20018;-93
2023/05/30 06:55:24;;;;;;;4.30;0.95;;;;;;;27.37;35.11;101467.47;7401110;19;20026;-94
2023/05/30 06:57:54;;;;;;;1.25;1.15;;;;;;;27.45;34.74;101468.31;7401696;19;20034;-93
2023/05/30 07:00:22;;;;;;;0.43;0.30;;;;;;;27.52;34.76;101468.41;7399707;19;20022;-92
2023/05/30 07:02:48;;;;;;;5.78;0.82;;;;;;;27.54;34.57;101465.78;7397766;19;20077;-91
2023/05/30 07:05:14;;;;;;;1.38;0.25;;;;;;;27.58;34.47;101471.13;7400208;19;20018;-92
2023/05/30 07:07:43;;;;;;;0.40;0.35;;;;;;;27.54;34.88;101465.00;7400287;19;20101;-91
2023/05/30 07:10:09;;;;;;;0.82;0.50;;;;;;;27.42;34.72;101463.69;7399599;19;20014;-92
2023/05/30 07:12:35;;;;;;;0.82;0.60;;;;;;;27.29;34.94;101463.72;7400931;19;20078;-93
2023/05/30 07:15:02;;;;;;;6.75;0.98;;;;;;;27.26;34.68;101467.69;7401940;19;20026;-92
2023/05/30 07:17:29;;;;;;;4.28;0.85;;;;;;;27.37;35.11;101473.19;7400094;19;20015;-93
2023/05/30 07:19:55;;;;;;;0.43;0.32;;;;;;;27.45;34.72;101468.31;7402348;19;20027;-91
2023/05/30 07:22:21;;;;;;;5.20;0.73;;;;;;;27.61;34.86;101470.78;7400141;19;20019;-90
2023/05/30 07:24:47;;;;;;;0.40;0.38;;;;;;;27.78;35.04;101462.59;7403002;19;20019;-94
2023/05/30 07:27:14;;;;;;;1.17;0.40;;;;;;;27.92;34.72;101471.09;7397645;19;20023;-89
2023/05/30 07:29:40;;;;;;;8.98;1.65;;;;;;;28.05;34.61;101466.09;7403394;19;20030;-90
2023/05/30 07:32:07;;;;;;;3.03;1.13;;;;;;;28.11;34.50;101475.31;7398249;19;20077;-91
2023/05/30 07:34:33;;;;;;;0.17;0.17;;;;;;;28.23;34.40;101450.78;7400016;19;20015;-92
2023/05/30 07:36:59;;;;;;;0.32;0.32;;;;;;;28.32;34.26;101456.00;7398516;19;20086;-93
2023/05/30 07:39:25;;;;;;;1.88;0.35;;;;;;;28.28;34.28;101458.47;7400289;19;20020;-92
2023/05/30 07:41:51;;;;;;;1.70;0.47;;;;;;;28.21;34.41;101458.41;7398568;19;20083;-92
2023/05/30 07:44:17;;;;;;;1.85;0.50;;;;;;;28.20;34.11;101460.50;7396854;19;20029;-93
2023/05/30 07:46:43;;;;;;;9.50;1.02;;;;;;;28.12;34.23;101467.47;7399490;19;20030;-94
2023/05/30 07:49:09;;;;;;;1.08;0.57;;;;;;;28.12;34.09;101456.03;7399102;19;20025;-93
2023/05/30 07:51:36;;;;;;;0.52;0.35;;;;;;;28.22;34.26;101457.81;7398693;19;20018;-95
2023/05/30 07:54:02;;;;;;;0.75;0.60;;;;;;;28.21;34.08;101467.78;7398006;19;20019;-94
2023/05/30 07:56:28;;;;;;;10.88;1.05;;;;;;;28.17;34.42;101464.50;7400847;19;20011;-93
2023/05/30 07:58:54;;;;;;;0.40;0.40;;;;;;;28.18;33.95;101460.28;7402917;19;20010;-93
2023/05/30 08:01:20;;;;;;;0.77;0.40;;;;;;;28.32;34.41;101458.88;7399432;19;20018;-91
2023/05/30 08:03:46;;;;;;;0.68;0.20;;;;;;;28.46;34.47;101463.16;7396200;19;20010;-92
2023/05/30 08:06:12;;;;;;;1.23;0.65;;;;;;;28.64;34.49;101460.63;7398329;19;20011;-93
2023/05/30 08:08:38;;;;;;;1.05;0.55;;;;;;;28.81;34.06;101458.06;7402608;19;20025;-92
2023/05/30 08:11:05;;;;;;;5.78;1.20;;;;;;;29.02;34.31;101461.63;7396642;19;20038;-92
2023/05/30 08:13:31;;;;;;;0.43;0.43;;;;;;;29.32;33.67;101461.00;7394688;19;20505;-91
2023/05/30 08:15:57;;;;;;;1.27;0.30;;;;;;;29.63;33.50;101456.84;7396225;19;20090;-91
2023/05/30 08:18:23;;;;;;;3.17;0.43;;;;;;;29.87;33.13;101459.22;7398439;19;20010;-92
2023/05/30 08:20:54;;;;;;;4.10;0.90;;;;;;;30.10;33.28;101447.75;7397937;19;20123;-90
2023/05/30 08:23:20;;;;;;;0.70;0.52;;;;;;;30.33;32.99;101451.41;7394122;19;20014;-91
2023/05/30 08:25:46;;;;;;;0.30;0.13;;;;;;;30.51;32.74;101447.34;7397573;19;20022;-91
2023/05/30 08:28:13;;;;;;;0.20;0.20;;;;;;;30.56;32.85;101449.25;7398052;19;20172;-91
2023/05/30 08:30:42;;;;;;;2.03;0.50;;;;;;;30.53;33.29;101450.41;7396794;19;20107;-91
2023/05/30 08:33:10;;;;;;;1.50;0.77;;;;;;;30.41;33.25;101452.16;7394143;19;20046;-91
2023/05/30 08:35:36;;;;;;;4.30;0.73;;;;;;;30.50;33.10;101445.81;7396780;19;20014;-92
2023/05/30 08:38:02;;;;;;;0.95;0.30;;;;;;;30.61;32.54;101449.06;7395943;19;20014;-90
2023/05/30 08:40:28;;;;;;;3.83;0.52;;;;;;;30.63;32.51;101452.13;7396449;19;20031;-91
2023/05/30 08:42:54;;;;;;;1.02;0.15;;;;;;;30.74;32.70;101453.81;7394831;19;20492;-91
2023/05/30 08:45:20;;;;;;;6.47;0.30;;;;;;;30.72;33.11;101453.63;7395816;19;20010;-91
2023/05/30 08:47:50;;;;;;;0.80;0.57;;;;;;;30.48;32.95;101462.88;7395048;19;20010;-91
2023/05/30 08:50:20;;;;;;;0.20;0.10;;;;;;;30.47;32.79;101458.47;7396668;19;20444;-92
2023/05/30 08:52:52;;;;;;;2.03;0.75;;;;;;;30.37;33.21;101460.41;7395183;19;20021;-92
2023/05/30 08:55:25;;;;;;;0.90;0.35;;;;;;;30.52;32.94;101466.13;7399370;19;20030;-90
2023/05/30 08:58:04;;;;;;;4.85;0.20;;;;;;;30.78;32.60;101454.19;7396119;19;20110;-91
2023/05/30 09:00:32;;;;;;;0.30;0.30;;;;;;;31.00;32.40;101446.84;7399450;19;20070;-91
2023/05/30 09:02:59;;;;;;;3.08;0.32;;;;;;;30.96;32.44;101440.72;7395215;19;20023;-91
2023/05/30 09:05:25;;;;;;;0.90;0.40;;;;;;;31.02;32.38;101456.44;7396736;19;20019;-90
2023/05/30 09:07:56;;;;;;;0.30;0.17;;;;;;;31.00;32.50;101447.63;7398473;19;20017;-92
2023/05/30 09:10:23;;;;;;;0.60;0.28;;;;;;;30.87;32.66;101439.22;7394911;19;20011;-92
2023/05/30 09:12:49;;;;;;;4.28;0.43;;;;;;;30.98;32.48;101444.56;7395412;19;20018;-91
2023/05/30 09:15:15;;;;;;;0.30;0.20;;;;;;;31.09;32.47;101452.75;7396028;19;20059;-91
2023/05/30 09:17:55;;;;;;;0.82;0.52;;;;;;;31.08;32.24;101445.47;7426645;19;20306;-65
2023/05/30 09:20:22;;;;;;;3.42;0.95;;;;;;;31.04;32.21;101445.09;7426735;19;20424;-68
2023/05/30 09:22:49;;;;;;;9.55;0.40;;;;;;;31.03;32.25;101440.72;7426808;19;20015;-64
2023/05/30 09:25:15;;;;;;;0.55;0.32;;;;;;;30.89;32.39;101439.41;7428329;19;20390;-65
2023/05/30 09:27:46;;;;;;;6.53;1.20;;;;;;;30.78;32.96;101436.16;7426524;19;20006;-64
2023/05/30 09:30:13;;;;;;;1.23;0.40;;;;;;;30.53;32.74;101438.91;7425397;19;20014;-64
2023/05/30 09:32:39;;;;;;;1.00;0.20;;;;;;;30.41;32.90;101437.78;7426637;19;20010;-64
2023/05/30 09:35:09;;;;;;;5.30;0.73;;;;;;;30.48;33.00;101437.00;7426271;19;20010;-64
2023/05/30 09:37:40;;;;;;;4.85;1.15;;;;;;;30.46;33.13;101445.44;7426355;19;20014;-63
2023/05/30 09:40:10;;;;;;;1.20;0.45;;;;;;;30.59;33.34;101448.09;7429811;19;20014;-64
2023/05/30 09:42:50;;;;;;;1.70;0.68;;;;;;;30.81;33.14;101452.25;7429451;19;20014;-64
2023/05/30 09:45:20;;;;;;;0.52;0.52;;;;;;;30.90;33.14;101443.06;7429930;19;20095;-63
2023/05/30 09:47:48;;;;;;;1.42;0.20;;;;;;;31.01;33.16;101442.63;7429461;19;20010;-64
2023/05/30 09:50:24;;;;;;;3.92;0.30;;;;;;;31.57;32.92;101441.22;7428810;19;20010;-64
2023/05/30 09:52:56;;;;;;;0.95;0.50;;;;;;;31.82;32.81;101439.88;7429990;19;20014;-64
2023/05/30 09:55:24;;;;;;;3.03;0.40;;;;;;;31.97;32.10;101436.13;7430840;19;20038;-64
2023/05/30 09:57:52;;;;;;;1.33;0.50;;;;;;;32.02;32.02;101433.03;7429643;19;20021;-63
2023/05/30 10:00:23;;;;;;;6.43;0.80;;;;;;;32.28;32.04;101433.75;7426745;19;20007;-63
2023/05/30 10:02:54;;;;;;;4.70;0.32;;;;;;;32.52;31.85;101436.59;7427834;19;20014;-64
2023/05/30 10:05:21;;;;;;;1.85;0.47;;;;;;;32.38;31.81;101423.81;7430050;19;20014;-64
2023/05/30 10:07:50;;;;;;;5.93;1.48;;;;;;;32.45;31.95;101434.53;7426783;19;20018;-63
2023/05/30 10:10:16;;;;;;;7.55;1.00;;;;;;;32.32;31.87;101440.63;7428287;19;20014;-64
2023/05/30 10:12:46;;;;;;;3.33;1.10;;;;;;;32.37;31.91;101435.97;7430730;19;20018;-64
2023/05/30 10:15:12;;;;;;;4.75;1.10;;;;;;;32.72;31.93;101426.00;7429035;19;20015;-64
2023/05/30 10:18:01;;;;;;;2.08;0.65;;;;;;;33.11;31.67;101427.09;7425458;19;20006;-63
2023/05/30 10:20:27;;;;;;;0.75;0.20;;;;;;;33.34;32.16;101431.19;7426820;19;20372;-64
2023/05/30 10:22:54;;;;;;;16.55;1.30;;;;;;;33.54;31.47;101426.31;7428713;19;20649;-63
2023/05/30 10:25:22;;;;;;;0.38;0.08;;;;;;;33.98;30.92;101415.38;7430136;19;20018;-61
2023/05/30 10:27:57;;;;;;;1.17;0.20;;;;;;;34.07;30.71;101411.78;7417074;19;20010;-62
2023/05/30 10:30:26;;;;;;;5.00;0.47;;;;;;;33.94;30.65;101412.16;7398184;19;20015;-62
2023/05/30 10:33:10;;;;;;;0.43;0.20;;;;;;;33.73;30.33;101423.50;7399261;19;20024;-63
2023/05/30 10:35:42;;;;;;;1.00;0.20;;;;;;;33.23;30.08;101416.50;7396898;19;20023;-62
2023/05/30 10:38:11;;;;;;;2.13;0.28;;;;;;;33.00;30.66;101410.28;7401847;19;20289;-65
2023/05/30 10:40:52;;;;;;;0.20;0.20;;;;;;;32.86;31.25;101407.72;7398192;19;20021;-64
2023/05/30 10:43:46;;;;;;;3.58;0.47;;;;;;;32.66;31.11;101406.03;7398804;19;20333;-64
2023/05/30 10:46:18;;;;;;;0.75;0.40;;;;;;;32.60;30.83;101411.31;7397958;19;20010;-65
2023/05/30 10:48:53;;;;;;;6.97;0.77;;;;;;;32.65;31.34;101406.66;7396213;19;20018;-65
2023/05/30 10:51:20;;;;;;;0.95;0.50;;;;;;;32.77;31.14;101399.75;7402351;19;20096;-64
2023/05/30 10:53:47;;;;;;;0.98;0.10;;;;;;;32.88;31.14;101405.00;7396361;19;20026;-65
2023/05/30 10:56:26;;;;;;;1.45;0.35;;;;;;;33.18;30.40;101398.09;7395166;19;20337;-64
2023/05/30 10:58:53;;;;;;;0.35;0.30;;;;;;;33.17;30.98;101402.34;7399027;19;20393;-64
2023/05/30 11:01:32;;;;;;;2.42;0.38;;;;;;;33.28;31.01;101398.16;7397654;19;20002;-65
2023/05/30 11:04:03;;;;;;;0.55;0.20;;;;;;;33.09;30.83;101395.94;7397064;19;20014;-65
2023/05/30 11:06:35;;;;;;;;;;;;;;;33.05;30.25;101403.50;7398728;19;20058;-64
2023/05/30 11:09:09;;;;;;;2.10;0.30;;;;;;;32.99;31.11;101406.63;7397957;19;19919;-63
2023/05/30 11:11:40;;;;;;;0.75;0.28;;;;;;;33.16;30.73;101405.84;7397556;19;20006;-63
2023/05/30 11:14:08;;;;;;;1.00;0.10;;;;;;;33.40;30.97;101402.00;7396612;19;20011;-63
2023/05/30 11:16:54;;;;;;;1.67;0.52;;;;;;;33.39;30.53;101388.94;7396397;19;20007;-63
2023/05/30 11:19:25;;;;;;;0.73;0.13;;;;;;;33.28;30.31;101389.50;7396784;19;20368;-63
2023/05/30 11:22:02;;;;;;;1.65;0.43;;;;;;;33.24;31.13;101400.72;7397750;19;20015;-63
2023/05/30 11:24:31;;;;;;;0.52;0.15;;;;;;;33.52;30.74;101403.03;7395130;19;20027;-64
2023/05/30 11:27:09;;;;;;;3.25;1.02;;;;;;;34.07;31.24;101402.31;7397100;19;20006;-63
2023/05/30 11:29:58;;;;;;;1.27;0.20;;;;;;;34.40;30.47;101402.69;7401738;19;20021;-65